sensor_id;sensor_type;location;lat;lon;timestamp;P1;durP1;ratioP1;P2;durP2;ratioP2
18887;SDS011;9576;47.792;9.628;2023-04-24T00:01:21;1.02;;;0.90;;
18887;SDS011;9576;47.792;9.628;2023-04-24T00:04:23;7.20;;;1.08;;
18887;SDS011;9576;47.792;9.628;2023-04-24T00:07:26;1.25;;;0.85;;
18887;SDS011;9576;47.792;9.628;2023-04-24T00:10:27;1.85;;;1.08;;
18887;SDS011;9576;47.792;9.628;2023-04-24T00:13:30;0.98;;;0.85;;
18887;SDS011;9576;47.792;9.628;2023-04-24T00:16:33;2.65;;;0.93;;
18887;SDS011;9576;47.792;9.628;2023-04-24T00:19:35;1.10;;;0.90;;
18887;SDS011;9576;47.792;9.628;2023-04-24T00:22:37;2.42;;;1.05;;
18887;SDS011;9576;47.792;9.628;2023-04-24T00:25:40;3.08;;;1.50;;
18887;SDS011;9576;47.792;9.628;2023-04-24T00:28:41;2.67;;;1.20;;
18887;SDS011;9576;47.792;9.628;2023-04-24T00:31:45;4.68;;;1.10;;
18887;SDS011;9576;47.792;9.628;2023-04-24T00:34:47;6.45;;;1.42;;
18887;SDS011;9576;47.792;9.628;2023-04-24T00:37:49;0.80;;;0.80;;
18887;SDS011;9576;47.792;9.628;2023-04-24T00:40:51;2.47;;;1.08;;
18887;SDS011;9576;47.792;9.628;2023-04-24T00:43:54;7.68;;;0.80;;
18887;SDS011;9576;47.792;9.628;2023-04-24T00:46:57;0.55;;;0.55;;
18887;SDS011;9576;47.792;9.628;2023-04-24T00:50:01;0.68;;;0.63;;
18887;SDS011;9576;47.792;9.628;2023-04-24T00:53:03;2.60;;;0.90;;
18887;SDS011;9576;47.792;9.628;2023-04-24T00:56:05;0.80;;;0.73;;
18887;SDS011;9576;47.792;9.628;2023-04-24T00:59:07;0.85;;;0.75;;
18887;SDS011;9576;47.792;9.628;2023-04-24T01:02:11;1.58;;;0.88;;
18887;SDS011;9576;47.792;9.628;2023-04-24T01:05:14;2.60;;;0.65;;
18887;SDS011;9576;47.792;9.628;2023-04-24T01:08:17;4.07;;;1.40;;
18887;SDS011;9576;47.792;9.628;2023-04-24T01:11:20;1.08;;;0.98;;
18887;SDS011;9576;47.792;9.628;2023-04-24T01:14:22;0.90;;;0.77;;
18887;SDS011;9576;47.792;9.628;2023-04-24T01:17:26;0.75;;;0.75;;
18887;SDS011;9576;47.792;9.628;2023-04-24T01:20:28;1.00;;;0.80;;
18887;SDS011;9576;47.792;9.628;2023-04-24T01:23:33;1.70;;;0.93;;
18887;SDS011;9576;47.792;9.628;2023-04-24T01:26:35;2.72;;;1.05;;
18887;SDS011;9576;47.792;9.628;2023-04-24T01:29:37;4.07;;;0.95;;
18887;SDS011;9576;47.792;9.628;2023-04-24T01:32:39;15.95;;;1.05;;
18887;SDS011;9576;47.792;9.628;2023-04-24T01:35:44;1.20;;;0.90;;
18887;SDS011;9576;47.792;9.628;2023-04-24T01:38:48;0.80;;;0.70;;
18887;SDS011;9576;47.792;9.628;2023-04-24T01:41:50;1.85;;;0.70;;
18887;SDS011;9576;47.792;9.628;2023-04-24T01:44:52;1.08;;;0.70;;
18887;SDS011;9576;47.792;9.628;2023-04-24T01:47:54;1.35;;;0.90;;
18887;SDS011;9576;47.792;9.628;2023-04-24T01:50:57;4.35;;;0.88;;
18887;SDS011;9576;47.792;9.628;2023-04-24T01:54:01;0.50;;;0.50;;
18887;SDS011;9576;47.792;9.628;2023-04-24T01:57:03;0.73;;;0.70;;
18887;SDS011;9576;47.792;9.628;2023-04-24T02:00:06;0.82;;;0.70;;
18887;SDS011;9576;47.792;9.628;2023-04-24T02:03:12;3.63;;;0.82;;
18887;SDS011;9576;47.792;9.628;2023-04-24T02:06:14;1.48;;;0.90;;
18887;SDS011;9576;47.792;9.628;2023-04-24T02:09:17;4.85;;;1.20;;
18887;SDS011;9576;47.792;9.628;2023-04-24T02:12:19;4.68;;;0.80;;
18887;SDS011;9576;47.792;9.628;2023-04-24T02:15:21;1.13;;;0.80;;
18887;SDS011;9576;47.792;9.628;2023-04-24T02:18:23;1.15;;;0.95;;
18887;SDS011;9576;47.792;9.628;2023-04-24T02:21:24;1.55;;;0.95;;
18887;SDS011;9576;47.792;9.628;2023-04-24T02:24:28;0.63;;;0.63;;
18887;SDS011;9576;47.792;9.628;2023-04-24T02:27:30;2.00;;;0.77;;
18887;SDS011;9576;47.792;9.628;2023-04-24T02:30:32;2.95;;;1.55;;
18887;SDS011;9576;47.792;9.628;2023-04-24T02:33:34;1.58;;;0.80;;
18887;SDS011;9576;47.792;9.628;2023-04-24T02:36:36;1.55;;;1.00;;
18887;SDS011;9576;47.792;9.628;2023-04-24T02:39:39;1.95;;;1.13;;
18887;SDS011;9576;47.792;9.628;2023-04-24T02:42:41;1.20;;;0.80;;
18887;SDS011;9576;47.792;9.628;2023-04-24T02:45:43;3.20;;;0.85;;
18887;SDS011;9576;47.792;9.628;2023-04-24T02:48:45;2.90;;;0.88;;
18887;SDS011;9576;47.792;9.628;2023-04-24T02:51:47;5.00;;;0.90;;
18887;SDS011;9576;47.792;9.628;2023-04-24T02:54:50;2.85;;;1.13;;
18887;SDS011;9576;47.792;9.628;2023-04-24T02:57:53;4.97;;;0.88;;
18887;SDS011;9576;47.792;9.628;2023-04-24T03:00:55;7.43;;;1.23;;
18887;SDS011;9576;47.792;9.628;2023-04-24T03:03:57;1.98;;;0.80;;
18887;SDS011;9576;47.792;9.628;2023-04-24T03:06:59;2.20;;;0.93;;
18887;SDS011;9576;47.792;9.628;2023-04-24T03:10:03;1.00;;;0.73;;
18887;SDS011;9576;47.792;9.628;2023-04-24T03:13:06;2.35;;;0.98;;
18887;SDS011;9576;47.792;9.628;2023-04-24T03:16:07;2.33;;;0.85;;
18887;SDS011;9576;47.792;9.628;2023-04-24T03:19:09;1.20;;;1.10;;
18887;SDS011;9576;47.792;9.628;2023-04-24T03:22:11;0.50;;;0.47;;
18887;SDS011;9576;47.792;9.628;2023-04-24T03:25:15;1.48;;;0.77;;
18887;SDS011;9576;47.792;9.628;2023-04-24T03:28:17;0.63;;;0.63;;
18887;SDS011;9576;47.792;9.628;2023-04-24T03:31:19;1.05;;;0.63;;
18887;SDS011;9576;47.792;9.628;2023-04-24T03:34:22;2.30;;;0.85;;
18887;SDS011;9576;47.792;9.628;2023-04-24T03:37:24;1.55;;;0.88;;
18887;SDS011;9576;47.792;9.628;2023-04-24T03:40:27;0.57;;;0.57;;
18887;SDS011;9576;47.792;9.628;2023-04-24T03:43:29;0.43;;;0.38;;
18887;SDS011;9576;47.792;9.628;2023-04-24T03:46:33;1.48;;;0.73;;
18887;SDS011;9576;47.792;9.628;2023-04-24T03:49:35;1.98;;;0.68;;
18887;SDS011;9576;47.792;9.628;2023-04-24T03:52:37;13.05;;;0.77;;
18887;SDS011;9576;47.792;9.628;2023-04-24T03:55:40;0.85;;;0.60;;
18887;SDS011;9576;47.792;9.628;2023-04-24T03:58:42;1.48;;;0.68;;
18887;SDS011;9576;47.792;9.628;2023-04-24T04:01:44;1.55;;;0.50;;
18887;SDS011;9576;47.792;9.628;2023-04-24T04:04:46;0.82;;;0.50;;
18887;SDS011;9576;47.792;9.628;2023-04-24T04:07:48;0.47;;;0.47;;
18887;SDS011;9576;47.792;9.628;2023-04-24T04:10:51;1.05;;;0.93;;
18887;SDS011;9576;47.792;9.628;2023-04-24T04:13:53;1.60;;;1.23;;
18887;SDS011;9576;47.792;9.628;2023-04-24T04:16:55;0.73;;;0.68;;
18887;SDS011;9576;47.792;9.628;2023-04-24T04:19:57;1.75;;;0.70;;
18887;SDS011;9576;47.792;9.628;2023-04-24T04:22:59;1.00;;;0.55;;
18887;SDS011;9576;47.792;9.628;2023-04-24T04:26:02;0.68;;;0.55;;
18887;SDS011;9576;47.792;9.628;2023-04-24T04:29:05;1.48;;;0.77;;
18887;SDS011;9576;47.792;9.628;2023-04-24T04:32:07;1.30;;;0.40;;
18887;SDS011;9576;47.792;9.628;2023-04-24T04:35:08;0.80;;;0.63;;
18887;SDS011;9576;47.792;9.628;2023-04-24T04:38:11;2.08;;;0.55;;
18887;SDS011;9576;47.792;9.628;2023-04-24T04:41:14;1.98;;;0.43;;
18887;SDS011;9576;47.792;9.628;2023-04-24T04:44:16;0.77;;;0.37;;
18887;SDS011;9576;47.792;9.628;2023-04-24T04:47:19;3.83;;;0.93;;
18887;SDS011;9576;47.792;9.628;2023-04-24T04:50:23;0.90;;;0.65;;
18887;SDS011;9576;47.792;9.628;2023-04-24T04:53:25;4.88;;;0.85;;
18887;SDS011;9576;47.792;9.628;2023-04-24T04:56:28;1.08;;;0.65;;
18887;SDS011;9576;47.792;9.628;2023-04-24T04:59:30;0.70;;;0.40;;
18887;SDS011;9576;47.792;9.628;2023-04-24T05:02:32;0.43;;;0.40;;
18887;SDS011;9576;47.792;9.628;2023-04-24T05:05:34;0.55;;;0.55;;
18887;SDS011;9576;47.792;9.628;2023-04-24T05:08:40;0.47;;;0.45;;
18887;SDS011;9576;47.792;9.628;2023-04-24T05:11:43;0.52;;;0.50;;
18887;SDS011;9576;47.792;9.628;2023-04-24T05:14:45;0.45;;;0.40;;
18887;SDS011;9576;47.792;9.628;2023-04-24T05:17:47;4.80;;;0.55;;
18887;SDS011;9576;47.792;9.628;2023-04-24T05:20:49;1.48;;;0.60;;
18887;SDS011;9576;47.792;9.628;2023-04-24T05:23:51;0.50;;;0.50;;
18887;SDS011;9576;47.792;9.628;2023-04-24T05:26:55;2.92;;;0.60;;
18887;SDS011;9576;47.792;9.628;2023-04-24T05:29:58;0.57;;;0.40;;
18887;SDS011;9576;47.792;9.628;2023-04-24T05:33:00;3.30;;;0.98;;
18887;SDS011;9576;47.792;9.628;2023-04-24T05:36:02;3.45;;;0.50;;
18887;SDS011;9576;47.792;9.628;2023-04-24T05:39:05;2.80;;;0.85;;
18887;SDS011;9576;47.792;9.628;2023-04-24T05:42:09;2.40;;;1.17;;
18887;SDS011;9576;47.792;9.628;2023-04-24T05:45:11;4.20;;;0.63;;
18887;SDS011;9576;47.792;9.628;2023-04-24T05:48:16;0.95;;;0.60;;
18887;SDS011;9576;47.792;9.628;2023-04-24T05:51:18;1.35;;;0.77;;
18887;SDS011;9576;47.792;9.628;2023-04-24T05:54:20;2.30;;;0.88;;
18887;SDS011;9576;47.792;9.628;2023-04-24T05:57:23;1.83;;;0.60;;
18887;SDS011;9576;47.792;9.628;2023-04-24T06:00:25;2.45;;;1.17;;
18887;SDS011;9576;47.792;9.628;2023-04-24T06:03:28;5.70;;;1.05;;
18887;SDS011;9576;47.792;9.628;2023-04-24T06:06:30;1.38;;;0.80;;
18887;SDS011;9576;47.792;9.628;2023-04-24T06:09:32;3.08;;;0.98;;
18887;SDS011;9576;47.792;9.628;2023-04-24T06:12:36;2.85;;;0.60;;
18887;SDS011;9576;47.792;9.628;2023-04-24T06:15:37;0.95;;;0.80;;
18887;SDS011;9576;47.792;9.628;2023-04-24T06:18:40;2.30;;;0.50;;
18887;SDS011;9576;47.792;9.628;2023-04-24T06:21:42;0.70;;;0.70;;
18887;SDS011;9576;47.792;9.628;2023-04-24T06:24:44;0.50;;;0.50;;
18887;SDS011;9576;47.792;9.628;2023-04-24T06:27:49;0.60;;;0.60;;
18887;SDS011;9576;47.792;9.628;2023-04-24T06:30:51;6.35;;;1.05;;
18887;SDS011;9576;47.792;9.628;2023-04-24T06:33:53;4.43;;;0.55;;
18887;SDS011;9576;47.792;9.628;2023-04-24T06:36:55;2.75;;;0.65;;
18887;SDS011;9576;47.792;9.628;2023-04-24T06:39:57;1.83;;;0.40;;
18887;SDS011;9576;47.792;9.628;2023-04-24T06:43:00;0.70;;;0.70;;
18887;SDS011;9576;47.792;9.628;2023-04-24T06:46:02;1.35;;;0.80;;
18887;SDS011;9576;47.792;9.628;2023-04-24T06:49:04;0.65;;;0.65;;
18887;SDS011;9576;47.792;9.628;2023-04-24T06:52:06;0.50;;;0.50;;
18887;SDS011;9576;47.792;9.628;2023-04-24T06:55:09;2.70;;;0.88;;
18887;SDS011;9576;47.792;9.628;2023-04-24T06:58:12;1.08;;;0.73;;
18887;SDS011;9576;47.792;9.628;2023-04-24T07:01:16;1.17;;;0.88;;
18887;SDS011;9576;47.792;9.628;2023-04-24T07:04:17;2.70;;;1.05;;
18887;SDS011;9576;47.792;9.628;2023-04-24T07:07:19;0.80;;;0.50;;
18887;SDS011;9576;47.792;9.628;2023-04-24T07:10:21;1.35;;;0.60;;
18887;SDS011;9576;47.792;9.628;2023-04-24T07:13:25;1.30;;;0.90;;
18887;SDS011;9576;47.792;9.628;2023-04-24T07:16:27;0.88;;;0.82;;
18887;SDS011;9576;47.792;9.628;2023-04-24T07:19:30;1.20;;;0.77;;
18887;SDS011;9576;47.792;9.628;2023-04-24T07:22:32;7.82;;;1.42;;
18887;SDS011;9576;47.792;9.628;2023-04-24T07:25:34;5.97;;;0.98;;
18887;SDS011;9576;47.792;9.628;2023-04-24T07:28:37;2.92;;;0.98;;
18887;SDS011;9576;47.792;9.628;2023-04-24T07:31:39;2.50;;;1.15;;
18887;SDS011;9576;47.792;9.628;2023-04-24T07:34:41;6.47;;;1.40;;
18887;SDS011;9576;47.792;9.628;2023-04-24T07:37:43;7.15;;;1.45;;
18887;SDS011;9576;47.792;9.628;2023-04-24T07:40:45;3.05;;;1.60;;
18887;SDS011;9576;47.792;9.628;2023-04-24T07:43:49;3.55;;;1.80;;
18887;SDS011;9576;47.792;9.628;2023-04-24T07:46:51;3.47;;;1.55;;
18887;SDS011;9576;47.792;9.628;2023-04-24T07:49:53;6.15;;;1.60;;
18887;SDS011;9576;47.792;9.628;2023-04-24T07:52:56;7.47;;;1.23;;
18887;SDS011;9576;47.792;9.628;2023-04-24T07:55:58;5.38;;;1.65;;
18887;SDS011;9576;47.792;9.628;2023-04-24T07:59:01;7.07;;;1.50;;
18887;SDS011;9576;47.792;9.628;2023-04-24T08:02:03;4.80;;;1.70;;
18887;SDS011;9576;47.792;9.628;2023-04-24T08:05:06;2.58;;;1.50;;
18887;SDS011;9576;47.792;9.628;2023-04-24T08:08:08;3.65;;;1.20;;
18887;SDS011;9576;47.792;9.628;2023-04-24T08:11:10;2.45;;;1.38;;
18887;SDS011;9576;47.792;9.628;2023-04-24T08:14:13;2.70;;;1.17;;
18887;SDS011;9576;47.792;9.628;2023-04-24T08:17:16;5.93;;;1.85;;
18887;SDS011;9576;47.792;9.628;2023-04-24T08:20:18;2.90;;;1.75;;
18887;SDS011;9576;47.792;9.628;2023-04-24T08:23:20;6.15;;;2.03;;
18887;SDS011;9576;47.792;9.628;2023-04-24T08:26:22;4.18;;;1.42;;
18887;SDS011;9576;47.792;9.628;2023-04-24T08:29:25;4.93;;;2.00;;
18887;SDS011;9576;47.792;9.628;2023-04-24T08:32:27;8.05;;;1.67;;
18887;SDS011;9576;47.792;9.628;2023-04-24T08:35:29;4.15;;;1.23;;
18887;SDS011;9576;47.792;9.628;2023-04-24T08:38:31;3.53;;;1.73;;
18887;SDS011;9576;47.792;9.628;2023-04-24T08:41:34;2.78;;;1.50;;
18887;SDS011;9576;47.792;9.628;2023-04-24T08:44:39;3.35;;;1.40;;
18887;SDS011;9576;47.792;9.628;2023-04-24T08:47:41;4.65;;;1.27;;
18887;SDS011;9576;47.792;9.628;2023-04-24T08:50:44;3.80;;;1.80;;
18887;SDS011;9576;47.792;9.628;2023-04-24T08:53:46;1.92;;;1.40;;
18887;SDS011;9576;47.792;9.628;2023-04-24T08:56:48;2.72;;;1.38;;
18887;SDS011;9576;47.792;9.628;2023-04-24T08:59:52;1.20;;;1.10;;
18887;SDS011;9576;47.792;9.628;2023-04-24T09:02:55;4.82;;;1.42;;
18887;SDS011;9576;47.792;9.628;2023-04-24T09:05:58;6.25;;;1.52;;
18887;SDS011;9576;47.792;9.628;2023-04-24T09:09:01;7.68;;;1.45;;
18887;SDS011;9576;47.792;9.628;2023-04-24T09:12:04;4.97;;;1.80;;
18887;SDS011;9576;47.792;9.628;2023-04-24T09:15:08;4.38;;;1.60;;
18887;SDS011;9576;47.792;9.628;2023-04-24T09:18:11;3.53;;;1.52;;
18887;SDS011;9576;47.792;9.628;2023-04-24T09:21:12;4.97;;;1.25;;
18887;SDS011;9576;47.792;9.628;2023-04-24T09:24:15;1.33;;;0.98;;
18887;SDS011;9576;47.792;9.628;2023-04-24T09:27:22;1.83;;;1.10;;
18887;SDS011;9576;47.792;9.628;2023-04-24T09:30:26;2.03;;;1.10;;
18887;SDS011;9576;47.792;9.628;2023-04-24T09:33:28;1.75;;;1.27;;
18887;SDS011;9576;47.792;9.628;2023-04-24T09:36:30;1.90;;;1.38;;
18887;SDS011;9576;47.792;9.628;2023-04-24T09:39:34;3.55;;;1.33;;
18887;SDS011;9576;47.792;9.628;2023-04-24T09:42:36;6.53;;;2.03;;
18887;SDS011;9576;47.792;9.628;2023-04-24T09:45:39;7.68;;;1.02;;
18887;SDS011;9576;47.792;9.628;2023-04-24T09:48:41;4.63;;;1.33;;
18887;SDS011;9576;47.792;9.628;2023-04-24T09:51:43;1.48;;;1.00;;
18887;SDS011;9576;47.792;9.628;2023-04-24T09:54:45;11.68;;;1.02;;
18887;SDS011;9576;47.792;9.628;2023-04-24T09:57:55;2.40;;;1.52;;
18887;SDS011;9576;47.792;9.628;2023-04-24T10:00:59;2.47;;;1.40;;
18887;SDS011;9576;47.792;9.628;2023-04-24T10:04:01;1.10;;;1.00;;
18887;SDS011;9576;47.792;9.628;2023-04-24T10:07:03;4.05;;;1.65;;
18887;SDS011;9576;47.792;9.628;2023-04-24T10:10:06;8.02;;;1.55;;
18887;SDS011;9576;47.792;9.628;2023-04-24T10:13:09;3.40;;;1.42;;
18887;SDS011;9576;47.792;9.628;2023-04-24T10:16:13;1.67;;;1.08;;
18887;SDS011;9576;47.792;9.628;2023-04-24T10:19:16;2.50;;;1.30;;
18887;SDS011;9576;47.792;9.628;2023-04-24T10:22:20;1.38;;;0.98;;
18887;SDS011;9576;47.792;9.628;2023-04-24T10:25:25;1.10;;;0.93;;
18887;SDS011;9576;47.792;9.628;2023-04-24T10:28:28;4.87;;;1.20;;
18887;SDS011;9576;47.792;9.628;2023-04-24T10:31:33;8.13;;;2.25;;
18887;SDS011;9576;47.792;9.628;2023-04-24T10:34:35;6.10;;;2.90;;
18887;SDS011;9576;47.792;9.628;2023-04-24T10:37:38;7.60;;;2.85;;
18887;SDS011;9576;47.792;9.628;2023-04-24T10:40:42;4.38;;;1.75;;
18887;SDS011;9576;47.792;9.628;2023-04-24T10:43:44;7.90;;;2.05;;
18887;SDS011;9576;47.792;9.628;2023-04-24T10:46:53;6.05;;;1.40;;
18887;SDS011;9576;47.792;9.628;2023-04-24T10:49:58;3.08;;;1.15;;
18887;SDS011;9576;47.792;9.628;2023-04-24T10:53:06;1.67;;;1.13;;
18887;SDS011;9576;47.792;9.628;2023-04-24T10:56:15;2.95;;;1.10;;
18887;SDS011;9576;47.792;9.628;2023-04-24T10:59:23;2.60;;;1.35;;
18887;SDS011;9576;47.792;9.628;2023-04-24T11:02:35;1.10;;;1.00;;
18887;SDS011;9576;47.792;9.628;2023-04-24T11:05:49;7.53;;;1.48;;
18887;SDS011;9576;47.792;9.628;2023-04-24T11:08:52;4.65;;;1.33;;
18887;SDS011;9576;47.792;9.628;2023-04-24T11:12:04;2.42;;;1.33;;
18887;SDS011;9576;47.792;9.628;2023-04-24T11:15:10;3.40;;;1.17;;
18887;SDS011;9576;47.792;9.628;2023-04-24T11:18:15;10.13;;;1.80;;
18887;SDS011;9576;47.792;9.628;2023-04-24T11:21:17;9.45;;;2.60;;
18887;SDS011;9576;47.792;9.628;2023-04-24T11:24:26;6.68;;;2.08;;
18887;SDS011;9576;47.792;9.628;2023-04-24T11:27:31;1.38;;;1.10;;
18887;SDS011;9576;47.792;9.628;2023-04-24T11:30:39;9.93;;;1.35;;
18887;SDS011;9576;47.792;9.628;2023-04-24T11:33:42;2.80;;;1.45;;
18887;SDS011;9576;47.792;9.628;2023-04-24T11:36:45;3.70;;;1.33;;
18887;SDS011;9576;47.792;9.628;2023-04-24T11:39:49;4.80;;;1.40;;
18887;SDS011;9576;47.792;9.628;2023-04-24T11:42:52;9.68;;;1.60;;
18887;SDS011;9576;47.792;9.628;2023-04-24T11:45:55;10.18;;;1.58;;
18887;SDS011;9576;47.792;9.628;2023-04-24T11:49:02;2.97;;;1.40;;
18887;SDS011;9576;47.792;9.628;2023-04-24T11:52:05;1.10;;;1.00;;
18887;SDS011;9576;47.792;9.628;2023-04-24T11:55:07;5.95;;;1.50;;
18887;SDS011;9576;47.792;9.628;2023-04-24T11:58:23;6.25;;;1.48;;
18887;SDS011;9576;47.792;9.628;2023-04-24T12:01:27;5.23;;;1.00;;
18887;SDS011;9576;47.792;9.628;2023-04-24T12:04:37;3.08;;;1.30;;
18887;SDS011;9576;47.792;9.628;2023-04-24T12:07:40;3.30;;;2.10;;
18887;SDS011;9576;47.792;9.628;2023-04-24T12:10:43;5.38;;;2.13;;
18887;SDS011;9576;47.792;9.628;2023-04-24T12:13:45;2.80;;;1.40;;
18887;SDS011;9576;47.792;9.628;2023-04-24T12:16:47;7.75;;;2.15;;
18887;SDS011;9576;47.792;9.628;2023-04-24T12:19:51;5.10;;;1.80;;
18887;SDS011;9576;47.792;9.628;2023-04-24T12:22:54;1.55;;;1.25;;
18887;SDS011;9576;47.792;9.628;2023-04-24T12:25:59;5.55;;;1.27;;
18887;SDS011;9576;47.792;9.628;2023-04-24T12:29:02;5.78;;;1.70;;
18887;SDS011;9576;47.792;9.628;2023-04-24T12:32:05;6.40;;;2.20;;
18887;SDS011;9576;47.792;9.628;2023-04-24T12:35:21;1.73;;;1.27;;
18887;SDS011;9576;47.792;9.628;2023-04-24T12:38:25;4.60;;;1.20;;
18887;SDS011;9576;47.792;9.628;2023-04-24T12:41:30;6.50;;;1.27;;
18887;SDS011;9576;47.792;9.628;2023-04-24T12:44:32;2.83;;;1.02;;
18887;SDS011;9576;47.792;9.628;2023-04-24T12:47:37;2.90;;;1.10;;
18887;SDS011;9576;47.792;9.628;2023-04-24T12:50:40;2.47;;;1.30;;
18887;SDS011;9576;47.792;9.628;2023-04-24T12:53:43;1.75;;;0.95;;
18887;SDS011;9576;47.792;9.628;2023-04-24T12:56:44;1.25;;;0.80;;
18887;SDS011;9576;47.792;9.628;2023-04-24T12:59:46;4.25;;;2.00;;
18887;SDS011;9576;47.792;9.628;2023-04-24T13:02:48;14.50;;;2.50;;
18887;SDS011;9576;47.792;9.628;2023-04-24T13:05:52;9.00;;;1.40;;
18887;SDS011;9576;47.792;9.628;2023-04-24T13:08:54;1.45;;;1.02;;
18887;SDS011;9576;47.792;9.628;2023-04-24T13:11:57;4.57;;;1.58;;
18887;SDS011;9576;47.792;9.628;2023-04-24T13:15:01;1.63;;;1.20;;
18887;SDS011;9576;47.792;9.628;2023-04-24T13:18:03;3.20;;;1.30;;
18887;SDS011;9576;47.792;9.628;2023-04-24T13:21:06;2.95;;;0.95;;
18887;SDS011;9576;47.792;9.628;2023-04-24T13:24:09;1.60;;;1.23;;
18887;SDS011;9576;47.792;9.628;2023-04-24T13:27:11;1.40;;;1.13;;
18887;SDS011;9576;47.792;9.628;2023-04-24T13:30:13;5.28;;;1.30;;
18887;SDS011;9576;47.792;9.628;2023-04-24T13:33:15;6.22;;;1.48;;
18887;SDS011;9576;47.792;9.628;2023-04-24T13:36:18;4.47;;;1.85;;
18887;SDS011;9576;47.792;9.628;2023-04-24T13:39:20;5.43;;;1.67;;
18887;SDS011;9576;47.792;9.628;2023-04-24T13:42:22;4.63;;;1.25;;
18887;SDS011;9576;47.792;9.628;2023-04-24T13:45:25;8.27;;;1.85;;
18887;SDS011;9576;47.792;9.628;2023-04-24T13:48:27;4.43;;;1.45;;
18887;SDS011;9576;47.792;9.628;2023-04-24T13:51:30;2.00;;;1.15;;
18887;SDS011;9576;47.792;9.628;2023-04-24T13:54:32;4.43;;;1.27;;
18887;SDS011;9576;47.792;9.628;2023-04-24T13:57:34;1.58;;;1.15;;
18887;SDS011;9576;47.792;9.628;2023-04-24T14:00:36;1.65;;;0.98;;
18887;SDS011;9576;47.792;9.628;2023-04-24T14:03:38;4.53;;;1.20;;
18887;SDS011;9576;47.792;9.628;2023-04-24T14:06:42;2.83;;;1.63;;
18887;SDS011;9576;47.792;9.628;2023-04-24T14:09:44;2.67;;;1.48;;
18887;SDS011;9576;47.792;9.628;2023-04-24T14:12:46;4.05;;;1.80;;
18887;SDS011;9576;47.792;9.628;2023-04-24T14:15:48;6.93;;;1.30;;
18887;SDS011;9576;47.792;9.628;2023-04-24T14:18:50;3.97;;;1.50;;
18887;SDS011;9576;47.792;9.628;2023-04-24T14:21:53;4.65;;;1.52;;
18887;SDS011;9576;47.792;9.628;2023-04-24T14:24:56;1.85;;;1.42;;
18887;SDS011;9576;47.792;9.628;2023-04-24T14:27:58;4.25;;;1.77;;
18887;SDS011;9576;47.792;9.628;2023-04-24T14:31:00;4.57;;;1.40;;
18887;SDS011;9576;47.792;9.628;2023-04-24T14:34:03;4.82;;;1.55;;
18887;SDS011;9576;47.792;9.628;2023-04-24T14:37:06;6.38;;;1.40;;
18887;SDS011;9576;47.792;9.628;2023-04-24T14:40:09;4.30;;;1.65;;
18887;SDS011;9576;47.792;9.628;2023-04-24T14:43:11;8.88;;;1.73;;
18887;SDS011;9576;47.792;9.628;2023-04-24T14:46:13;2.35;;;1.38;;
18887;SDS011;9576;47.792;9.628;2023-04-24T14:49:15;5.53;;;1.63;;
18887;SDS011;9576;47.792;9.628;2023-04-24T14:52:18;2.88;;;1.55;;
18887;SDS011;9576;47.792;9.628;2023-04-24T14:55:20;2.08;;;1.27;;
18887;SDS011;9576;47.792;9.628;2023-04-24T14:58:22;3.50;;;1.30;;
18887;SDS011;9576;47.792;9.628;2023-04-24T15:01:24;8.68;;;1.67;;
18887;SDS011;9576;47.792;9.628;2023-04-24T15:04:26;4.40;;;1.48;;
18887;SDS011;9576;47.792;9.628;2023-04-24T15:07:30;6.93;;;1.42;;
18887;SDS011;9576;47.792;9.628;2023-04-24T15:10:33;3.47;;;1.80;;
18887;SDS011;9576;47.792;9.628;2023-04-24T15:13:35;7.40;;;1.83;;
18887;SDS011;9576;47.792;9.628;2023-04-24T15:16:37;4.63;;;1.17;;
18887;SDS011;9576;47.792;9.628;2023-04-24T15:19:39;7.85;;;1.35;;
18887;SDS011;9576;47.792;9.628;2023-04-24T15:22:42;2.30;;;1.25;;
18887;SDS011;9576;47.792;9.628;2023-04-24T15:25:44;5.25;;;2.58;;
18887;SDS011;9576;47.792;9.628;2023-04-24T15:28:46;5.18;;;1.45;;
18887;SDS011;9576;47.792;9.628;2023-04-24T15:31:48;5.55;;;1.67;;
18887;SDS011;9576;47.792;9.628;2023-04-24T15:34:50;7.70;;;1.40;;
18887;SDS011;9576;47.792;9.628;2023-04-24T15:37:53;3.78;;;1.52;;
18887;SDS011;9576;47.792;9.628;2023-04-24T15:40:55;2.13;;;1.65;;
18887;SDS011;9576;47.792;9.628;2023-04-24T15:43:57;2.40;;;1.23;;
18887;SDS011;9576;47.792;9.628;2023-04-24T15:47:00;4.78;;;1.45;;
18887;SDS011;9576;47.792;9.628;2023-04-24T15:50:02;7.25;;;1.58;;
18887;SDS011;9576;47.792;9.628;2023-04-24T15:53:06;3.15;;;1.90;;
18887;SDS011;9576;47.792;9.628;2023-04-24T15:56:08;2.88;;;1.25;;
18887;SDS011;9576;47.792;9.628;2023-04-24T15:59:10;2.50;;;1.30;;
18887;SDS011;9576;47.792;9.628;2023-04-24T16:02:12;5.45;;;1.48;;
18887;SDS011;9576;47.792;9.628;2023-04-24T16:05:18;1.55;;;1.10;;
18887;SDS011;9576;47.792;9.628;2023-04-24T16:08:23;8.73;;;1.60;;
18887;SDS011;9576;47.792;9.628;2023-04-24T16:11:25;4.88;;;1.73;;
18887;SDS011;9576;47.792;9.628;2023-04-24T16:14:27;3.15;;;1.45;;
18887;SDS011;9576;47.792;9.628;2023-04-24T16:17:28;1.13;;;0.93;;
18887;SDS011;9576;47.792;9.628;2023-04-24T16:20:30;4.85;;;2.22;;
18887;SDS011;9576;47.792;9.628;2023-04-24T16:23:35;4.38;;;2.50;;
18887;SDS011;9576;47.792;9.628;2023-04-24T16:26:39;3.13;;;1.40;;
18887;SDS011;9576;47.792;9.628;2023-04-24T16:29:41;5.78;;;1.38;;
18887;SDS011;9576;47.792;9.628;2023-04-24T16:32:43;1.30;;;1.15;;
18887;SDS011;9576;47.792;9.628;2023-04-24T16:35:45;2.97;;;1.58;;
18887;SDS011;9576;47.792;9.628;2023-04-24T16:38:48;8.27;;;1.10;;
18887;SDS011;9576;47.792;9.628;2023-04-24T16:41:50;1.77;;;1.15;;
18887;SDS011;9576;47.792;9.628;2023-04-24T16:44:53;10.13;;;1.42;;
18887;SDS011;9576;47.792;9.628;2023-04-24T16:47:55;1.95;;;1.05;;
18887;SDS011;9576;47.792;9.628;2023-04-24T16:50:57;1.73;;;1.30;;
18887;SDS011;9576;47.792;9.628;2023-04-24T16:54:01;4.70;;;1.55;;
18887;SDS011;9576;47.792;9.628;2023-04-24T16:57:03;4.18;;;2.38;;
18887;SDS011;9576;47.792;9.628;2023-04-24T17:03:44;4.03;;;2.33;;
18887;SDS011;9576;47.792;9.628;2023-04-24T17:09:49;1.95;;;1.27;;
18887;SDS011;9576;47.792;9.628;2023-04-24T17:12:52;2.65;;;1.80;;
18887;SDS011;9576;47.792;9.628;2023-04-24T17:15:53;3.63;;;1.48;;
18887;SDS011;9576;47.792;9.628;2023-04-24T17:18:55;11.85;;;3.15;;
18887;SDS011;9576;47.792;9.628;2023-04-24T17:21:57;8.55;;;3.75;;
18887;SDS011;9576;47.792;9.628;2023-04-24T17:25:00;4.00;;;2.35;;
18887;SDS011;9576;47.792;9.628;2023-04-24T17:28:02;4.00;;;1.70;;
18887;SDS011;9576;47.792;9.628;2023-04-24T17:31:10;5.03;;;2.22;;
18887;SDS011;9576;47.792;9.628;2023-04-24T17:34:12;2.50;;;1.58;;
18887;SDS011;9576;47.792;9.628;2023-04-24T17:37:14;6.47;;;1.90;;
18887;SDS011;9576;47.792;9.628;2023-04-24T17:40:20;4.40;;;2.22;;
18887;SDS011;9576;47.792;9.628;2023-04-24T17:43:22;3.72;;;1.85;;
18887;SDS011;9576;47.792;9.628;2023-04-24T17:46:24;4.53;;;1.70;;
18887;SDS011;9576;47.792;9.628;2023-04-24T17:49:26;2.60;;;1.60;;
18887;SDS011;9576;47.792;9.628;2023-04-24T17:52:28;3.05;;;1.30;;
18887;SDS011;9576;47.792;9.628;2023-04-24T17:55:32;4.72;;;1.98;;
18887;SDS011;9576;47.792;9.628;2023-04-24T17:58:34;5.00;;;1.87;;
18887;SDS011;9576;47.792;9.628;2023-04-24T18:01:36;4.05;;;1.75;;
18887;SDS011;9576;47.792;9.628;2023-04-24T18:04:38;2.38;;;1.48;;
18887;SDS011;9576;47.792;9.628;2023-04-24T18:07:41;3.45;;;2.10;;
18887;SDS011;9576;47.792;9.628;2023-04-24T18:10:45;10.50;;;1.80;;
18887;SDS011;9576;47.792;9.628;2023-04-24T18:13:47;2.28;;;1.50;;
18887;SDS011;9576;47.792;9.628;2023-04-24T18:16:49;5.65;;;3.38;;
18887;SDS011;9576;47.792;9.628;2023-04-24T18:19:51;3.05;;;2.00;;
18887;SDS011;9576;47.792;9.628;2023-04-24T18:22:53;5.18;;;2.30;;
18887;SDS011;9576;47.792;9.628;2023-04-24T18:25:56;4.10;;;2.00;;
18887;SDS011;9576;47.792;9.628;2023-04-24T18:28:58;2.75;;;1.65;;
18887;SDS011;9576;47.792;9.628;2023-04-24T18:32:00;8.82;;;1.90;;
18887;SDS011;9576;47.792;9.628;2023-04-24T18:35:04;5.40;;;3.20;;
18887;SDS011;9576;47.792;9.628;2023-04-24T18:38:06;13.43;;;2.47;;
18887;SDS011;9576;47.792;9.628;2023-04-24T18:41:09;2.70;;;1.98;;
18887;SDS011;9576;47.792;9.628;2023-04-24T18:47:14;6.53;;;1.73;;